Time;durP1;ratioP1;P1;durP2;ratioP2;P2;SDS_P1;SDS_P2;PMS_P1;PMS_P2;Temp;Humidity;BMP_temperature;BMP_pressure;BME280_temperature;BME280_humidity;BME280_pressure;Samples;Min_cycle;Max_cycle;Signal;HPM_P1;HPM_P2
2024/03/11 00:04:44;;;;;;;1.23;1.10;;;;;;;9.51;69.56;99539.53;15795335;28;20047;-46
2024/03/11 00:12:38;;;;;;;1.52;0.90;;;;;;;9.40;69.95;99548.38;15794417;28;20475;-49
2024/03/11 00:20:16;;;;;;;3.55;1.42;;;;;;;9.34;70.29;99539.41;15770507;28;20052;-49
2024/03/11 00:28:01;;;;;;;0.43;0.43;;;;;;;9.41;70.47;99550.81;15790244;28;20504;-48
2024/03/11 00:35:38;;;;;;;0.40;0.40;;;;;;;9.24;71.41;99546.41;15792896;28;20068;-48
2024/03/11 00:43:14;;;;;;;1.75;0.70;;;;;;;9.31;71.58;99541.72;15791753;28;20051;-46
2024/03/11 00:50:48;;;;;;;0.30;0.30;;;;;;;9.41;71.30;99533.94;15790913;28;20043;-49
2024/03/11 00:58:28;;;;;;;0.45;0.45;;;;;;;9.51;71.59;99531.50;15791521;28;20510;-51
2024/03/11 01:06:07;;;;;;;0.60;0.52;;;;;;;9.60;71.40;99522.06;15790346;28;20052;-49
2024/03/11 01:13:45;;;;;;;0.43;0.38;;;;;;;9.47;72.21;99508.91;15790574;28;20055;-49
2024/03/11 01:21:21;;;;;;;13.43;2.08;;;;;;;9.55;72.34;99513.09;15790523;28;20147;-49
2024/03/11 01:29:01;;;;;;;4.00;2.40;;;;;;;9.45;73.13;99517.16;15788956;28;20032;-47
2024/03/11 01:36:37;;;;;;;0.43;0.43;;;;;;;9.50;73.14;99519.16;15767036;28;20558;-49
2024/03/11 01:44:14;;;;;;;0.25;0.25;;;;;;;9.69;72.33;99517.97;15817282;28;20152;-50
2024/03/11 01:51:53;;;;;;;0.30;0.30;;;;;;;9.36;74.07;99517.75;15851623;28;20048;-48
2024/03/11 01:59:34;;;;;;;0.50;0.50;;;;;;;9.49;73.71;99524.75;15852444;28;20457;-49
2024/03/11 02:07:13;;;;;;;0.10;0.10;;;;;;;9.68;73.31;99515.53;15851256;28;20090;-48
2024/03/11 02:14:48;;;;;;;1.30;0.90;;;;;;;9.37;74.83;99506.00;15832337;28;20123;-48
2024/03/11 02:22:37;;;;;;;0.90;0.90;;;;;;;9.71;73.46;99523.13;15856086;28;20116;-48
2024/03/11 02:30:16;;;;;;;0.98;0.88;;;;;;;9.64;74.24;99528.59;15865933;28;20052;-51
2024/03/11 02:37:50;;;;;;;1.13;0.45;;;;;;;9.56;74.48;99525.44;15864658;28;20161;-48
2024/03/11 02:45:30;;;;;;;1.27;0.77;;;;;;;9.39;75.41;99512.75;15863951;28;20052;-48
2024/03/11 02:53:04;;;;;;;0.88;0.80;;;;;;;9.51;75.08;99520.78;15864000;28;20042;-48
2024/03/11 03:00:42;;;;;;;0.32;0.32;;;;;;;9.32;75.75;99508.53;15863454;28;20078;-52
2024/03/11 03:08:17;;;;;;;0.20;0.20;;;;;;;9.61;74.81;99498.78;15863238;28;20425;-51
2024/03/11 03:15:55;;;;;;;1.02;0.93;;;;;;;9.27;76.20;99497.72;15862325;28;20054;-47
2024/03/11 03:23:32;;;;;;;2.35;1.10;;;;;;;9.38;75.53;99503.09;15842774;28;20051;-47
2024/03/11 03:31:10;;;;;;;0.52;0.52;;;;;;;9.52;75.48;99524.28;15855579;28;20043;-46
2024/03/11 03:38:45;;;;;;;1.17;1.08;;;;;;;9.35;75.60;99511.59;15858172;28;20093;-46
2024/03/11 03:46:23;;;;;;;0.52;0.52;;;;;;;9.41;75.74;99524.03;15861666;28;20142;-47
2024/03/11 03:54:00;;;;;;;0.65;0.63;;;;;;;9.52;74.99;99519.75;15857573;28;20035;-45
2024/03/11 04:01:37;;;;;;;0.80;0.57;;;;;;;9.37;75.34;99520.22;15860193;28;20051;-50
2024/03/11 04:09:14;;;;;;;0.13;0.13;;;;;;;9.43;75.47;99531.84;15852716;28;20036;-49
2024/03/11 04:16:49;;;;;;;0.43;0.38;;;;;;;9.37;75.79;99530.94;15841690;28;20048;-47
2024/03/11 04:24:31;;;;;;;1.38;0.73;;;;;;;9.15;76.40;99544.06;15858663;28;20062;-48
2024/03/11 04:32:09;;;;;;;0.60;0.60;;;;;;;9.34;75.52;99552.81;15858453;28;20040;-48
2024/03/11 04:39:44;;;;;;;0.82;0.75;;;;;;;9.51;75.73;99554.78;15856842;28;20055;-46
2024/03/11 04:47:19;;;;;;;0.93;0.20;;;;;;;9.50;75.04;99574.59;15834186;28;20075;-48
2024/03/11 04:54:58;;;;;;;0.75;0.65;;;;;;;9.44;75.64;99573.66;15856254;28;20063;-46
2024/03/11 05:02:38;;;;;;;0.60;0.60;;;;;;;9.09;77.17;99560.19;15840660;28;20031;-48
2024/03/11 05:10:13;;;;;;;4.80;2.17;;;;;;;9.28;76.39;99561.78;15855067;28;20057;-48
2024/03/11 05:17:50;;;;;;;0.38;0.38;;;;;;;9.34;76.50;99581.44;15855855;28;20381;-47
2024/03/11 05:25:32;;;;;;;3.50;1.20;;;;;;;9.37;76.33;99587.16;15840698;28;20052;-48
2024/03/11 05:33:07;;;;;;;0.47;0.28;;;;;;;9.81;74.87;99600.25;15838009;28;20067;-47
2024/03/11 05:40:47;;;;;;;0.63;0.63;;;;;;;9.60;75.61;99606.97;15852011;28;20075;-45
2024/03/11 05:48:22;;;;;;;0.55;0.55;;;;;;;9.52;76.07;99620.72;15792699;28;20444;-45
2024/03/11 05:55:55;;;;;;;0.25;0.25;;;;;;;9.58;75.56;99601.03;15794878;28;20071;-47
2024/03/11 06:03:31;;;;;;;0.40;0.40;;;;;;;9.61;75.95;99608.63;15801571;28;20153;-49
2024/03/11 06:11:06;;;;;;;0.75;0.75;;;;;;;9.44;76.75;99611.97;15802513;28;20070;-47
2024/03/11 06:18:42;;;;;;;0.47;0.32;;;;;;;9.68;76.31;99622.72;15804948;28;20036;-49
2024/03/11 06:26:31;;;;;;;1.17;1.13;;;;;;;9.73;76.23;99633.56;15788043;28;20497;-46
2024/03/11 06:34:07;;;;;;;0.15;0.15;;;;;;;9.79;75.99;99646.03;15802910;28;20044;-47
2024/03/11 06:41:44;;;;;;;0.47;0.47;;;;;;;9.93;75.51;99660.84;15785059;28;20501;-51
2024/03/11 06:49:31;;;;;;;0.47;0.30;;;;;;;10.13;74.84;99663.19;15787139;28;20036;-47
2024/03/11 06:57:06;;;;;;;1.20;0.52;;;;;;;10.13;74.83;99662.38;15781170;28;20058;-45
2024/03/11 07:04:42;;;;;;;1.80;1.17;;;;;;;10.24;74.53;99664.25;15803999;28;20513;-50
2024/03/11 07:12:23;;;;;;;1.27;0.93;;;;;;;10.52;73.44;99665.38;15801896;28;20039;-50
2024/03/11 07:19:59;;;;;;;0.55;0.55;;;;;;;10.35;74.54;99684.06;15798753;28;20388;-46
2024/03/11 07:27:47;;;;;;;1.00;0.75;;;;;;;10.73;73.49;99688.91;15780202;28;20051;-48
2024/03/11 07:35:22;;;;;;;1.80;1.20;;;;;;;10.60;74.28;99706.09;15782150;28;20187;-48
2024/03/11 07:42:58;;;;;;;4.78;0.80;;;;;;;10.79;73.20;99698.69;15800110;28;20044;-49
2024/03/11 07:50:49;;;;;;;0.55;0.55;;;;;;;11.03;72.80;99726.28;15799199;28;20289;-47
2024/03/11 07:58:24;;;;;;;0.60;0.60;;;;;;;10.54;73.75;99735.72;15799592;28;20052;-49
2024/03/11 08:05:59;;;;;;;0.25;0.25;;;;;;;10.79;73.24;99740.84;15778504;28;20036;-46
2024/03/11 08:13:35;;;;;;;0.28;0.20;;;;;;;10.96;72.10;99755.16;15800678;28;20044;-48
2024/03/11 08:21:13;;;;;;;1.15;0.85;;;;;;;10.72;71.43;99778.50;15780411;28;20135;-46
2024/03/11 08:28:49;;;;;;;0.73;0.52;;;;;;;10.80;70.62;99780.84;15780495;28;20045;-46
2024/03/11 08:36:25;;;;;;;1.52;1.10;;;;;;;10.78;70.43;99800.94;15779799;28;20135;-50
2024/03/11 08:43:59;;;;;;;3.40;1.48;;;;;;;10.76;69.70;99800.34;15827460;28;20059;-47
2024/03/11 08:51:38;;;;;;;0.55;0.55;;;;;;;10.89;68.31;99822.41;15842302;28;20054;-46
2024/03/11 08:59:15;;;;;;;1.52;1.42;;;;;;;10.71;69.16;99822.50;15833881;28;20400;-48
2024/03/11 09:06:51;;;;;;;1.10;1.02;;;;;;;11.18;67.74;99835.91;15841110;28;20105;-46
2024/03/11 09:14:27;;;;;;;1.02;1.02;;;;;;;11.68;65.67;99820.00;15841448;28;20120;-50
2024/03/11 09:22:05;;;;;;;1.40;1.15;;;;;;;11.91;63.89;99853.25;15838340;28;20132;-49
2024/03/11 09:29:42;;;;;;;4.40;1.25;;;;;;;12.35;63.42;99850.78;15841494;28;20482;-48
2024/03/11 09:37:24;;;;;;;2.00;1.77;;;;;;;12.86;61.80;99870.44;15880835;28;20035;-47
2024/03/11 09:44:59;;;;;;;0.63;0.43;;;;;;;13.72;59.18;99885.13;15884835;22;20423;-51
2024/03/11 09:52:37;;;;;;;2.28;2.08;;;;;;;13.79;58.92;99893.00;15904198;27;20048;-51
2024/03/11 10:00:15;;;;;;;1.58;1.35;;;;;;;14.17;57.62;99902.06;15846278;28;20048;-53
2024/03/11 10:07:57;;;;;;;;;;;;;;;13.75;57.07;99926.94;15880268;28;20044;-52
2024/03/11 10:15:34;;;;;;;3.40;0.63;;;;;;;14.04;57.50;99928.38;15864416;28;19963;-50
2024/03/11 10:23:29;;;;;;;3.08;1.45;;;;;;;14.39;55.53;99929.00;15859074;27;20048;-54
2024/03/11 10:31:24;;;;;;;1.90;0.95;;;;;;;14.37;55.03;99944.66;15828102;27;20043;-53
2024/03/11 10:39:07;;;;;;;2.90;1.15;;;;;;;14.01;56.86;99950.47;15836730;28;20123;-54
2024/03/11 10:46:48;;;;;;;2.60;1.20;;;;;;;13.44;57.59;99956.22;15827617;28;20051;-51
2024/03/11 10:54:28;;;;;;;0.20;0.20;;;;;;;14.12;56.80;99961.38;15840764;28;20055;-51
2024/03/11 11:02:19;;;;;;;4.40;1.15;;;;;;;14.14;55.72;99960.06;15846837;28;20510;-52
2024/03/11 11:10:01;;;;;;;5.22;1.35;;;;;;;14.40;53.87;99963.03;15818327;28;20036;-51
2024/03/11 11:17:38;;;;;;;0.38;0.38;;;;;;;13.88;54.83;99971.63;15808346;28;20048;-53
2024/03/11 11:25:37;;;;;;;0.75;0.75;;;;;;;13.60;54.74;99980.69;15841881;28;20032;-50
2024/03/11 11:33:32;;;;;;;1.27;1.17;;;;;;;13.56;55.75;99988.44;15834109;28;20070;-50
2024/03/11 11:41:39;;;;;;;0.43;0.43;;;;;;;13.45;55.90;99989.38;15797378;28;20082;-54
2024/03/11 11:49:17;;;;;;;1.40;0.63;;;;;;;13.76;55.28;99987.94;15818636;28;20044;-50
2024/03/11 11:57:10;;;;;;;0.50;0.50;;;;;;;13.57;55.32;99994.66;15866953;28;20435;-52
2024/03/11 12:04:48;;;;;;;3.72;1.05;;;;;;;13.68;55.25;100004.53;15842417;28;20052;-51
2024/03/11 12:12:32;;;;;;;0.75;0.40;;;;;;;13.53;54.86;100003.25;15804451;28;20044;-54
2024/03/11 12:20:18;;;;;;;1.33;0.98;;;;;;;14.32;52.79;100007.50;15824640;28;20065;-52
2024/03/11 12:28:03;;;;;;;1.42;1.27;;;;;;;13.76;53.88;100012.22;15830643;28;20048;-51
2024/03/11 12:35:43;;;;;;;0.20;0.15;;;;;;;13.64;53.90;100006.09;15789007;28;20138;-50
2024/03/11 12:43:20;;;;;;;0.50;0.50;;;;;;;14.65;50.43;100006.53;15837413;27;20047;-51
2024/03/11 12:50:58;;;;;;;0.00;0.00;;;;;;;14.13;51.77;100015.13;15797683;28;20054;-49
2024/03/11 12:58:36;;;;;;;0.00;0.00;;;;;;;14.25;51.93;100020.38;15827298;28;20130;-51
2024/03/11 13:06:16;;;;;;;0.40;0.40;;;;;;;14.62;51.43;100036.75;15826578;28;20052;-52
2024/03/11 13:13:53;;;;;;;1.08;0.50;;;;;;;14.19;51.46;100048.38;15834850;28;20076;-52
2024/03/11 13:21:29;;;;;;;0.22;0.22;;;;;;;14.71;50.23;100061.44;15815595;28;20028;-54
2024/03/11 13:29:04;;;;;;;0.05;0.05;;;;;;;14.44;50.84;100078.38;15852424;28;20036;-51
2024/03/11 13:36:40;;;;;;;0.00;0.00;;;;;;;14.23;47.52;100080.03;15825872;28;20517;-53
2024/03/11 13:44:21;;;;;;;0.98;0.57;;;;;;;14.06;48.78;100092.72;15824149;28;20066;-53
2024/03/11 13:52:00;;;;;;;0.52;0.22;;;;;;;14.03;49.60;100098.63;15854484;28;20126;-51
2024/03/11 13:59:38;;;;;;;0.00;0.00;;;;;;;14.53;48.58;100059.88;15812240;28;20036;-51
2024/03/11 14:07:12;;;;;;;0.22;0.20;;;;;;;14.48;49.16;100106.53;15783901;28;20055;-51
2024/03/11 14:14:51;;;;;;;0.00;0.00;;;;;;;14.72;48.57;100107.09;15790668;28;20056;-52
2024/03/11 14:22:26;;;;;;;0.00;0.00;;;;;;;14.66;47.90;100101.91;15827452;28;20117;-50
2024/03/11 14:30:01;;;;;;;0.10;0.10;;;;;;;14.60;48.16;100117.22;15826308;28;20044;-52
2024/03/11 14:37:36;;;;;;;0.00;0.00;;;;;;;14.62;48.32;100120.47;15817474;28;20048;-52
2024/03/11 14:45:11;;;;;;;0.00;0.00;;;;;;;14.93;47.44;100127.06;15830021;28;20082;-54
2024/03/11 14:53:00;;;;;;;0.00;0.00;;;;;;;15.18;46.87;100126.50;15831821;28;20044;-52
2024/03/11 15:00:46;;;;;;;0.00;0.00;;;;;;;14.54;48.38;100131.72;15860847;28;20043;-58
2024/03/11 15:08:28;;;;;;;0.00;0.00;;;;;;;14.94;48.46;100139.50;15816136;28;20512;-51
2024/03/11 15:16:11;;;;;;;0.10;0.10;;;;;;;14.57;48.11;100152.03;15792002;28;20400;-50
2024/03/11 15:23:49;;;;;;;0.00;0.00;;;;;;;14.82;47.50;100155.00;15803228;28;20040;-49
2024/03/11 15:31:28;;;;;;;0.90;0.20;;;;;;;14.79;47.60;100156.34;15840517;28;20043;-51
2024/03/11 15:39:03;;;;;;;0.93;0.28;;;;;;;14.45;48.73;100169.09;15843272;28;20450;-52
2024/03/11 15:46:43;;;;;;;0.30;0.25;;;;;;;14.49;48.56;100178.38;15829864;28;20036;-51
2024/03/11 15:54:21;;;;;;;0.00;0.00;;;;;;;14.20;49.48;100185.78;15842123;28;20218;-54
2024/03/11 16:01:57;;;;;;;0.00;0.00;;;;;;;14.86;48.57;100195.88;15825221;28;20036;-49
2024/03/11 16:17:28;;;;;;;0.10;0.10;;;;;;;14.63;49.63;100215.84;15804426;28;20044;-50
2024/03/11 16:25:05;;;;;;;0.10;0.10;;;;;;;14.72;48.94;100215.16;15786470;28;20422;-50
2024/03/11 16:32:41;;;;;;;0.30;0.30;;;;;;;14.71;48.52;100224.31;15821034;28;20415;-49
2024/03/11 16:40:15;;;;;;;0.00;0.00;;;;;;;14.65;48.60;100233.44;15817433;28;20445;-51
2024/03/11 16:47:52;;;;;;;0.00;0.00;;;;;;;14.46;49.04;100202.34;15819917;28;20047;-53
2024/03/11 16:55:32;;;;;;;0.00;0.00;;;;;;;14.46;50.03;100250.97;15804114;28;20135;-51
2024/03/11 17:03:10;;;;;;;0.10;0.10;;;;;;;14.34;49.76;100261.84;15820118;28;20549;-50
2024/03/11 17:10:45;;;;;;;0.15;0.13;;;;;;;14.16;50.37;100240.50;15796278;28;20047;-50
2024/03/11 17:18:21;;;;;;;0.00;0.00;;;;;;;14.17;50.72;100272.63;15809338;28;20052;-52
2024/03/11 17:25:56;;;;;;;0.00;0.00;;;;;;;14.13;50.61;100267.97;15816409;28;20066;-51
2024/03/11 17:33:32;;;;;;;0.00;0.00;;;;;;;14.03;51.17;100274.03;15834818;28;20127;-50
2024/03/11 17:41:09;;;;;;;0.00;0.00;;;;;;;13.56;52.87;100286.94;15820310;27;20069;-52
2024/03/11 17:48:46;;;;;;;0.52;0.52;;;;;;;13.37;54.06;100297.09;15830993;28;20055;-51
2024/03/11 17:56:21;;;;;;;0.00;0.00;;;;;;;13.01;54.80;100297.16;15807442;28;20571;-52
2024/03/11 18:03:57;;;;;;;0.55;0.43;;;;;;;12.47;56.19;100318.00;15850309;28;20167;-53
2024/03/11 18:11:41;;;;;;;0.00;0.00;;;;;;;12.13;57.65;100330.38;15838567;28;20055;-52
2024/03/11 18:19:23;;;;;;;0.00;0.00;;;;;;;11.78;58.59;100330.22;15831954;28;20036;-52
2024/03/11 18:27:03;;;;;;;0.00;0.00;;;;;;;11.56;58.97;100351.38;15806769;28;20472;-51
2024/03/11 18:34:41;;;;;;;0.00;0.00;;;;;;;11.19;60.18;100355.97;15856153;28;20100;-51
2024/03/11 18:42:15;;;;;;;0.05;0.03;;;;;;;10.86;61.37;100359.00;15828793;28;20127;-51
2024/03/11 18:49:52;;;;;;;1.20;1.13;;;;;;;10.54;62.51;100366.28;15820291;28;20051;-52
2024/03/11 18:57:28;;;;;;;0.65;0.65;;;;;;;10.52;62.17;100363.84;15848922;28;20095;-53
2024/03/11 19:05:08;;;;;;;0.63;0.63;;;;;;;10.26;62.68;100382.81;15854372;28;20096;-51
2024/03/11 19:12:46;;;;;;;0.20;0.20;;;;;;;10.03;63.55;100373.47;15847574;28;20047;-48
2024/03/11 19:20:25;;;;;;;0.10;0.10;;;;;;;9.77;64.06;100374.41;15839703;28;20036;-52
2024/03/11 19:28:01;;;;;;;0.10;0.10;;;;;;;9.63;64.17;100370.16;15786364;28;20108;-51
2024/03/11 19:35:37;;;;;;;0.13;0.13;;;;;;;9.50;64.62;100375.56;15792950;28;20079;-49
2024/03/11 19:43:52;;;;;;;0.30;0.30;;;;;;;9.10;65.99;100378.38;15794759;28;20443;-52
2024/03/11 19:52:00;;;;;;;0.98;0.15;;;;;;;8.96;66.44;100401.66;15782575;28;20048;-51
2024/03/11 20:00:26;;;;;;;0.10;0.10;;;;;;;8.94;66.20;100407.22;15793404;28;20063;-52
2024/03/11 20:08:28;;;;;;;0.10;0.10;;;;;;;8.55;66.94;100415.25;15784466;28;20044;-52
2024/03/11 20:16:40;;;;;;;0.35;0.20;;;;;;;8.50;67.79;100415.06;15791608;28;20101;-52
2024/03/11 20:24:52;;;;;;;0.52;0.38;;;;;;;8.36;68.48;100435.56;15752675;28;20381;-50
2024/03/11 20:32:34;;;;;;;0.22;0.20;;;;;;;8.17;67.83;100448.69;15807556;28;20068;-51
2024/03/11 20:40:12;;;;;;;0.57;0.57;;;;;;;7.81;68.84;100413.41;15792094;28;20051;-51
2024/03/11 20:47:47;;;;;;;1.08;0.80;;;;;;;8.03;68.11;100465.72;15783930;28;20040;-51
2024/03/11 20:55:25;;;;;;;0.38;0.38;;;;;;;7.92;68.57;100469.75;15788246;28;20487;-52
2024/03/11 21:02:59;;;;;;;0.73;0.30;;;;;;;7.46;68.80;100437.53;15789053;28;20036;-51
2024/03/11 21:10:34;;;;;;;1.50;1.00;;;;;;;7.59;69.00;100490.97;15797576;28;20044;-51
2024/03/11 21:18:16;;;;;;;0.08;0.08;;;;;;;7.50;68.78;100502.84;15829485;28;20043;-53
2024/03/11 21:26:17;;;;;;;0.05;0.05;;;;;;;7.25;69.75;100497.13;15822931;28;20228;-52
2024/03/11 21:33:51;;;;;;;0.00;0.00;;;;;;;7.22;70.21;100507.38;15809707;28;20044;-50
2024/03/11 21:41:47;;;;;;;3.13;1.70;;;;;;;7.30;70.05;100524.06;15806601;27;20083;-52
2024/03/11 21:49:21;;;;;;;0.57;0.57;;;;;;;7.18;70.05;100516.78;15615141;28;20061;-51
2024/03/11 21:57:00;;;;;;;4.00;1.08;;;;;;;6.99;71.06;100515.59;15665231;28;20103;-53
2024/03/11 22:04:36;;;;;;;0.80;0.80;;;;;;;7.06;70.16;100525.31;15667312;28;20127;-50
2024/03/11 22:12:17;;;;;;;0.10;0.10;;;;;;;6.60;70.85;100484.88;15667693;28;20044;-49
2024/03/11 22:19:51;;;;;;;1.13;1.05;;;;;;;6.80;71.51;100535.75;15633697;28;20128;-48
2024/03/11 22:27:28;;;;;;;0.10;0.10;;;;;;;6.69;71.99;100545.09;15643715;28;20122;-51
2024/03/11 22:35:04;;;;;;;0.55;0.55;;;;;;;6.70;71.48;100538.72;15666249;28;20037;-52
2024/03/11 22:42:39;;;;;;;0.38;0.30;;;;;;;6.53;72.83;100542.69;15674518;28;20107;-48
2024/03/11 22:50:20;;;;;;;0.00;0.00;;;;;;;6.71;71.83;100552.88;15649338;28;20077;-52
2024/03/11 22:57:56;;;;;;;0.17;0.17;;;;;;;6.66;71.68;100548.13;15674444;28;20539;-49
2024/03/11 23:05:34;;;;;;;0.05;0.05;;;;;;;6.36;72.48;100550.88;15651869;28;20064;-50
2024/03/11 23:13:10;;;;;;;1.13;1.02;;;;;;;6.43;72.92;100556.28;15676154;28;20036;-49
2024/03/11 23:20:45;;;;;;;1.65;1.00;;;;;;;6.10;74.21;100562.03;15676723;28;20045;-49
2024/03/11 23:28:20;;;;;;;0.32;0.32;;;;;;;6.37;72.39;100567.69;15675419;28;20056;-50
2024/03/11 23:35:56;;;;;;;0.38;0.38;;;;;;;6.31;72.21;100569.28;15665973;28;20037;-53
2024/03/11 23:43:32;;;;;;;0.20;0.20;;;;;;;6.49;71.75;100568.06;15656535;28;20046;-50
2024/03/11 23:51:06;;;;;;;0.80;0.63;;;;;;;6.46;71.78;100576.41;15577043;28;20084;-53
2024/03/11 23:58:52;;;;;;;0.10;0.10;;;;;;;6.42;71.92;100575.97;15593152;28;20546;-49
